createdAt,value
2018-12-31T00:02:19.601Z,3.00
2018-12-31T00:04:48.117Z,2.90
2018-12-31T00:07:16.586Z,3.00
2018-12-31T00:09:45.024Z,2.90
2018-12-31T00:12:13.471Z,2.80
2018-12-31T00:14:41.937Z,2.80
2018-12-31T00:17:10.653Z,2.80
2018-12-31T00:19:39.102Z,2.80
2018-12-31T00:22:07.585Z,2.80
2018-12-31T00:24:36.024Z,2.80
2018-12-31T00:27:04.616Z,2.70
2018-12-31T00:29:33.160Z,2.60
2018-12-31T00:32:01.606Z,2.60
2018-12-31T00:34:30.048Z,2.60
2018-12-31T00:36:58.532Z,2.60
2018-12-31T00:39:27.050Z,2.70
2018-12-31T00:41:55.489Z,2.60
2018-12-31T00:44:23.982Z,2.60
2018-12-31T00:46:52.445Z,2.60
2018-12-31T00:49:20.886Z,2.60
2018-12-31T00:51:49.429Z,2.60
2018-12-31T00:54:17.865Z,2.60
2018-12-31T00:56:49.513Z,2.60
2018-12-31T00:59:17.997Z,2.60
2018-12-31T01:01:46.509Z,2.60
2018-12-31T01:04:14.962Z,2.60
2018-12-31T01:06:43.425Z,2.70
2018-12-31T01:09:11.870Z,2.70
2018-12-31T01:11:40.380Z,2.70
2018-12-31T01:14:08.917Z,2.80
2018-12-31T01:16:37.365Z,2.80
2018-12-31T01:19:05.877Z,2.70
2018-12-31T01:21:34.353Z,2.80
2018-12-31T01:24:02.948Z,2.80
2018-12-31T01:26:31.397Z,2.80
2018-12-31T01:28:59.873Z,2.80
2018-12-31T01:31:28.473Z,2.80
2018-12-31T01:33:56.915Z,2.80
2018-12-31T01:36:25.393Z,2.80
2018-12-31T01:38:53.842Z,2.80
2018-12-31T01:41:22.289Z,2.80
2018-12-31T01:43:50.777Z,2.80
2018-12-31T01:46:19.221Z,2.70
2018-12-31T01:48:47.669Z,2.80
2018-12-31T01:51:16.141Z,2.80
2018-12-31T01:53:44.586Z,2.70
2018-12-31T01:56:13.037Z,2.80
2018-12-31T01:58:41.509Z,2.80
2018-12-31T02:01:10.272Z,2.80
2018-12-31T02:03:38.761Z,2.80
2018-12-31T02:06:07.261Z,2.70
2018-12-31T02:08:35.777Z,2.70
2018-12-31T02:11:04.290Z,2.70
2018-12-31T02:13:32.841Z,2.70
2018-12-31T02:16:01.289Z,2.70
2018-12-31T02:18:29.811Z,2.70
2018-12-31T02:20:58.569Z,2.70
2018-12-31T02:23:27.016Z,2.70
2018-12-31T02:25:55.460Z,2.70
2018-12-31T02:28:23.935Z,2.70
2018-12-31T02:30:52.383Z,2.60
2018-12-31T02:33:20.826Z,2.60
2018-12-31T02:35:49.373Z,2.70
2018-12-31T02:38:17.821Z,2.60
2018-12-31T02:40:46.261Z,2.60
2018-12-31T02:43:14.736Z,2.60
2018-12-31T02:45:43.182Z,2.60
2018-12-31T02:48:11.625Z,2.60
2018-12-31T02:50:40.179Z,2.70
2018-12-31T02:53:08.624Z,2.60
2018-12-31T02:55:37.069Z,2.60
2018-12-31T02:58:05.533Z,2.60
2018-12-31T03:00:34.454Z,2.50
2018-12-31T03:03:02.945Z,2.50
2018-12-31T03:05:31.481Z,2.50
2018-12-31T03:07:59.930Z,2.50
2018-12-31T03:10:28.379Z,2.60
2018-12-31T03:12:56.845Z,2.50
2018-12-31T03:15:25.286Z,2.50
2018-12-31T03:17:53.738Z,2.60
2018-12-31T03:20:22.214Z,2.50
2018-12-31T03:22:50.794Z,2.50
2018-12-31T03:25:19.236Z,2.60
2018-12-31T03:27:47.785Z,2.50
2018-12-31T03:30:16.303Z,2.60
2018-12-31T03:32:44.887Z,2.60
2018-12-31T03:35:13.357Z,2.50
2018-12-31T03:37:41.807Z,2.50
2018-12-31T03:40:10.400Z,2.40
2018-12-31T03:42:38.887Z,2.40
2018-12-31T03:45:07.470Z,2.30
2018-12-31T03:47:35.913Z,2.20
2018-12-31T03:50:06.124Z,2.20
2018-12-31T03:52:34.637Z,2.20
2018-12-31T03:55:03.088Z,2.20
2018-12-31T03:57:31.574Z,2.20
2018-12-31T04:00:00.013Z,2.20
2018-12-31T04:02:28.531Z,2.30
2018-12-31T04:04:57.139Z,2.30
2018-12-31T04:07:25.661Z,2.30
2018-12-31T04:09:54.105Z,2.40
2018-12-31T04:12:22.713Z,2.40
2018-12-31T04:14:51.163Z,2.40
2018-12-31T04:17:19.679Z,2.40
2018-12-31T04:19:48.149Z,2.50
2018-12-31T04:22:16.602Z,2.50
2018-12-31T04:24:45.389Z,2.60
2018-12-31T04:27:13.873Z,2.60
2018-12-31T04:29:42.394Z,2.60
2018-12-31T04:32:10.843Z,2.60
2018-12-31T04:34:39.337Z,2.60
2018-12-31T04:37:08.093Z,2.60
2018-12-31T04:39:36.538Z,2.60
2018-12-31T04:42:05.083Z,2.60
2018-12-31T04:44:33.534Z,2.50
2018-12-31T04:47:02.050Z,2.50
2018-12-31T04:49:30.535Z,2.50
2018-12-31T04:51:59.049Z,2.50
2018-12-31T04:54:27.501Z,2.50
2018-12-31T04:56:55.992Z,2.50
2018-12-31T04:59:24.437Z,2.50
2018-12-31T05:01:52.886Z,2.40
2018-12-31T05:04:22.145Z,2.40
2018-12-31T05:06:50.902Z,2.40
2018-12-31T05:09:19.372Z,2.40
2018-12-31T05:11:49.861Z,2.30
2018-12-31T05:14:18.085Z,2.40
2018-12-31T05:16:46.539Z,2.30
2018-12-31T05:19:15.013Z,2.30
2018-12-31T05:21:43.466Z,2.30
2018-12-31T05:24:11.912Z,2.30
2018-12-31T05:26:40.423Z,2.30
2018-12-31T05:29:08.917Z,2.20
2018-12-31T05:31:37.369Z,2.30
2018-12-31T05:34:05.843Z,2.20
2018-12-31T05:36:34.290Z,2.20
2018-12-31T05:39:02.886Z,2.30
2018-12-31T05:41:31.429Z,2.20
2018-12-31T05:43:59.881Z,2.30
2018-12-31T05:46:28.330Z,2.20
2018-12-31T05:48:56.813Z,2.20
2018-12-31T05:51:25.335Z,2.10
2018-12-31T05:53:53.781Z,2.10
2018-12-31T05:56:22.274Z,2.00
2018-12-31T05:58:50.797Z,2.00
2018-12-31T06:01:19.256Z,2.00
2018-12-31T06:03:47.738Z,2.00
2018-12-31T06:06:16.193Z,2.00
2018-12-31T06:08:44.644Z,1.90
2018-12-31T06:11:13.201Z,1.90
2018-12-31T06:13:41.645Z,1.90
2018-12-31T06:16:10.169Z,1.90
2018-12-31T06:18:38.654Z,1.90
2018-12-31T06:21:07.103Z,1.90
2018-12-31T06:23:35.554Z,1.90
2018-12-31T06:26:04.319Z,2.00
2018-12-31T06:28:32.834Z,2.00
2018-12-31T06:31:01.417Z,2.10
2018-12-31T06:33:29.893Z,2.00
2018-12-31T06:35:58.346Z,2.00
2018-12-31T06:38:26.866Z,2.10
2018-12-31T06:40:55.346Z,2.10
2018-12-31T06:43:23.793Z,2.00
2018-12-31T06:45:52.250Z,2.10
2018-12-31T06:48:20.806Z,2.10
2018-12-31T06:50:49.253Z,2.10
2018-12-31T06:53:17.777Z,2.10
2018-12-31T06:55:46.260Z,2.10
2018-12-31T06:58:14.780Z,2.20
2018-12-31T07:00:43.365Z,2.10
2018-12-31T07:03:11.843Z,2.10
2018-12-31T07:05:40.293Z,2.10
2018-12-31T07:08:08.741Z,2.10
2018-12-31T07:10:37.213Z,2.10
2018-12-31T07:13:05.671Z,2.10
2018-12-31T07:15:34.190Z,2.10
2018-12-31T07:18:02.661Z,2.10
2018-12-31T07:20:31.109Z,2.20
2018-12-31T07:22:59.633Z,2.20
2018-12-31T07:25:28.120Z,2.20
2018-12-31T07:27:56.568Z,2.20
2018-12-31T07:30:25.020Z,2.20
2018-12-31T07:32:53.493Z,2.20
2018-12-31T07:35:22.022Z,2.30
2018-12-31T07:37:50.475Z,2.40
2018-12-31T07:40:18.962Z,2.40
2018-12-31T07:42:47.581Z,2.40
2018-12-31T07:45:16.038Z,2.40
2018-12-31T07:47:44.538Z,2.40
2018-12-31T07:50:13.065Z,2.40
2018-12-31T07:52:41.599Z,2.40
2018-12-31T07:55:10.147Z,2.50
2018-12-31T07:57:38.609Z,2.50
2018-12-31T08:00:08.325Z,2.50
2018-12-31T08:02:36.801Z,2.40
2018-12-31T08:05:05.585Z,2.40
2018-12-31T08:07:34.037Z,2.40
2018-12-31T08:10:02.509Z,2.40
2018-12-31T08:12:30.964Z,2.40
2018-12-31T08:14:59.486Z,2.50
2018-12-31T08:17:27.993Z,2.50
2018-12-31T08:19:56.525Z,2.50
2018-12-31T08:22:25.041Z,2.50
2018-12-31T08:24:53.518Z,2.50
2018-12-31T08:27:21.969Z,2.50
2018-12-31T08:29:50.421Z,2.50
2018-12-31T08:32:19.054Z,2.50
2018-12-31T08:34:47.510Z,2.60
2018-12-31T08:37:16.034Z,2.60
2018-12-31T08:39:44.517Z,2.60
2018-12-31T08:42:12.969Z,2.60
2018-12-31T08:44:41.550Z,2.60
2018-12-31T08:47:10.096Z,2.60
2018-12-31T08:49:38.613Z,2.60
2018-12-31T08:52:07.141Z,2.70
2018-12-31T08:54:35.620Z,2.70
2018-12-31T08:57:04.154Z,2.70
2018-12-31T08:59:32.741Z,2.70
2018-12-31T09:02:01.656Z,2.80
2018-12-31T09:04:30.417Z,2.80
2018-12-31T09:06:58.866Z,2.90
2018-12-31T09:09:27.417Z,2.80
2018-12-31T09:11:55.866Z,2.80
2018-12-31T09:14:24.326Z,2.80
2018-12-31T09:16:52.962Z,2.90
2018-12-31T09:19:21.514Z,2.90
2018-12-31T09:21:49.965Z,2.90
2018-12-31T09:24:18.451Z,2.90
2018-12-31T09:26:46.965Z,2.90
2018-12-31T09:29:15.413Z,3.00
2018-12-31T09:31:44.362Z,3.00
2018-12-31T09:34:12.817Z,3.00
2018-12-31T09:36:41.265Z,3.00
2018-12-31T09:39:10.446Z,3.00
2018-12-31T09:41:39.125Z,3.00
2018-12-31T09:44:07.662Z,3.00
2018-12-31T09:46:36.224Z,3.00
2018-12-31T09:49:04.902Z,3.00
2018-12-31T09:51:33.433Z,3.00
2018-12-31T09:54:02.030Z,3.00
2018-12-31T09:56:51.846Z,3.00
2018-12-31T09:59:09.757Z,3.00
2018-12-31T10:01:38.483Z,3.10
2018-12-31T10:04:07.010Z,3.10
2018-12-31T10:06:35.519Z,3.10
2018-12-31T10:09:05.910Z,3.10
2018-12-31T10:11:34.674Z,3.10
2018-12-31T10:14:03.361Z,3.10
2018-12-31T10:16:31.903Z,3.10
2018-12-31T10:19:00.443Z,3.10
2018-12-31T10:21:28.990Z,3.10
2018-12-31T10:23:57.440Z,3.10
2018-12-31T10:26:25.898Z,3.10
2018-12-31T10:31:41.245Z,3.10
2018-12-31T10:34:09.822Z,3.00
2018-12-31T10:36:38.351Z,3.10
2018-12-31T10:39:13.416Z,3.10
2018-12-31T10:41:37.637Z,3.10
2018-12-31T10:44:06.232Z,3.20
2018-12-31T10:46:34.823Z,3.10
2018-12-31T10:49:08.964Z,3.20
2018-12-31T10:51:37.450Z,3.10
2018-12-31T10:54:14.588Z,3.10
2018-12-31T10:56:43.433Z,3.20
2018-12-31T10:59:12.239Z,3.20
2018-12-31T11:01:40.953Z,3.20
2018-12-31T11:04:09.634Z,3.20
2018-12-31T11:06:38.210Z,3.30
2018-12-31T11:09:06.930Z,3.30
2018-12-31T11:11:35.455Z,3.30
2018-12-31T11:14:04.066Z,3.30
2018-12-31T11:16:32.766Z,3.30
2018-12-31T11:19:01.394Z,3.30
2018-12-31T11:21:29.926Z,3.30
2018-12-31T11:23:58.550Z,3.30
2018-12-31T11:26:28.011Z,3.30
2018-12-31T11:28:56.558Z,3.30
2018-12-31T11:31:30.237Z,3.30
2018-12-31T11:33:55.382Z,3.30
2018-12-31T11:36:23.998Z,3.40
2018-12-31T11:38:52.646Z,3.40
2018-12-31T11:41:21.322Z,3.30
2018-12-31T11:43:49.917Z,3.30
2018-12-31T11:46:18.860Z,3.30
2018-12-31T11:48:47.314Z,3.30
2018-12-31T11:51:15.829Z,3.30
2018-12-31T11:53:44.305Z,3.30
2018-12-31T11:56:12.761Z,3.30
2018-12-31T11:58:41.201Z,3.30
2018-12-31T12:01:09.686Z,3.40
2018-12-31T12:03:38.209Z,3.40
2018-12-31T12:06:06.653Z,3.40
2018-12-31T12:08:35.285Z,3.40
2018-12-31T12:11:03.878Z,3.40
2018-12-31T12:13:32.397Z,3.40
2018-12-31T12:16:00.948Z,3.40
2018-12-31T12:18:29.545Z,3.40
2018-12-31T12:20:58.076Z,3.50
2018-12-31T12:23:26.801Z,3.50
2018-12-31T12:25:55.726Z,3.50
2018-12-31T12:28:24.647Z,3.50
2018-12-31T12:30:53.305Z,3.60
2018-12-31T12:33:21.866Z,3.60
2018-12-31T12:35:50.485Z,3.60
2018-12-31T12:38:19.637Z,3.60
2018-12-31T12:40:48.253Z,3.60
2018-12-31T12:43:16.782Z,3.60
2018-12-31T12:45:45.353Z,3.70
2018-12-31T12:48:13.975Z,3.80
2018-12-31T12:50:43.060Z,3.80
2018-12-31T12:53:11.695Z,3.80
2018-12-31T12:55:40.230Z,3.70
2018-12-31T12:58:08.865Z,3.70
2018-12-31T13:00:37.645Z,3.80
2018-12-31T13:03:06.378Z,3.80
2018-12-31T13:05:34.990Z,3.70
2018-12-31T13:08:03.838Z,3.80
2018-12-31T13:10:32.494Z,3.80
2018-12-31T13:13:01.207Z,3.80
2018-12-31T13:15:30.379Z,3.70
2018-12-31T13:17:58.926Z,3.70
2018-12-31T13:20:27.594Z,3.70
2018-12-31T13:22:56.290Z,3.60
2018-12-31T13:25:25.054Z,3.60
2018-12-31T13:27:53.893Z,3.60
2018-12-31T13:30:22.509Z,3.60
2018-12-31T13:32:51.033Z,3.60
2018-12-31T13:35:19.561Z,3.60
2018-12-31T13:37:48.139Z,3.50
2018-12-31T13:40:16.736Z,3.60
2018-12-31T13:42:45.355Z,3.50
2018-12-31T13:45:13.929Z,3.50
2018-12-31T13:47:42.376Z,3.50
2018-12-31T13:50:11.001Z,3.50
2018-12-31T13:52:39.561Z,3.50
2018-12-31T13:55:08.089Z,3.50
2018-12-31T13:57:36.545Z,3.40
2018-12-31T14:00:08.290Z,3.50
2018-12-31T14:02:36.934Z,3.40
2018-12-31T14:05:05.809Z,3.40
2018-12-31T14:07:34.449Z,3.40
2018-12-31T14:10:03.934Z,3.40
2018-12-31T14:12:32.471Z,3.50
2018-12-31T14:15:01.043Z,3.40
2018-12-31T14:17:29.660Z,3.40
2018-12-31T14:19:58.362Z,3.40
2018-12-31T14:22:27.038Z,3.40
2018-12-31T14:24:55.526Z,3.40
2018-12-31T14:27:24.218Z,3.40
2018-12-31T14:29:52.791Z,3.40
2018-12-31T14:32:21.462Z,3.30
2018-12-31T14:34:50.138Z,3.30
2018-12-31T14:37:18.709Z,3.30
2018-12-31T14:39:47.303Z,3.30
2018-12-31T14:42:15.850Z,3.20
2018-12-31T14:44:44.486Z,3.20
2018-12-31T14:47:18.292Z,3.20
2018-12-31T14:49:43.297Z,3.20
2018-12-31T14:52:11.923Z,3.30
2018-12-31T14:54:40.534Z,3.20
2018-12-31T14:57:09.159Z,3.30
2018-12-31T14:59:37.875Z,3.20
2018-12-31T15:02:06.760Z,3.20
2018-12-31T15:04:35.309Z,3.20
2018-12-31T15:07:03.946Z,3.20
2018-12-31T15:09:32.554Z,3.20
2018-12-31T15:12:01.215Z,3.20
2018-12-31T15:14:29.727Z,3.20
2018-12-31T15:16:58.254Z,3.20
2018-12-31T15:19:26.930Z,3.30
2018-12-31T15:21:55.487Z,3.30
2018-12-31T15:24:24.037Z,3.20
2018-12-31T15:26:52.565Z,3.30
2018-12-31T15:29:21.134Z,3.30
2018-12-31T15:31:49.738Z,3.30
2018-12-31T15:34:18.831Z,3.30
2018-12-31T15:36:47.536Z,3.20
2018-12-31T15:39:16.151Z,3.20
2018-12-31T15:41:44.854Z,3.30
2018-12-31T15:44:13.410Z,3.30
2018-12-31T15:47:01.974Z,3.30
2018-12-31T15:49:30.514Z,3.20
2018-12-31T15:51:59.134Z,3.20
2018-12-31T15:54:27.731Z,3.20
2018-12-31T15:56:56.882Z,3.20
2018-12-31T15:59:25.618Z,3.20
2018-12-31T16:01:54.241Z,3.20
2018-12-31T16:04:22.819Z,3.20
2018-12-31T16:06:51.365Z,3.20
2018-12-31T16:09:20.202Z,3.20
2018-12-31T16:11:48.869Z,3.20
2018-12-31T16:14:17.422Z,3.20
2018-12-31T16:16:46.173Z,3.20
2018-12-31T16:19:14.923Z,3.20
2018-12-31T16:21:43.935Z,3.20
2018-12-31T16:24:12.564Z,3.10
2018-12-31T16:26:41.186Z,3.10
2018-12-31T16:29:09.791Z,3.10
2018-12-31T16:31:38.406Z,3.10
2018-12-31T16:34:07.046Z,3.10
2018-12-31T16:36:35.644Z,3.10
2018-12-31T16:39:06.431Z,3.10
2018-12-31T16:41:35.078Z,3.10
2018-12-31T16:44:03.726Z,3.10
2018-12-31T16:46:32.297Z,3.10
2018-12-31T16:49:00.862Z,3.10
2018-12-31T16:51:29.494Z,3.10
2018-12-31T16:53:58.180Z,3.10
2018-12-31T16:56:27.075Z,3.20
2018-12-31T16:58:55.694Z,3.20
2018-12-31T17:01:24.293Z,3.10
2018-12-31T17:03:52.855Z,3.10
2018-12-31T17:06:21.458Z,3.10
2018-12-31T17:08:50.095Z,3.10
2018-12-31T17:11:18.657Z,3.10
2018-12-31T17:13:47.680Z,3.10
2018-12-31T17:16:16.302Z,3.10
2018-12-31T17:18:44.883Z,3.20
2018-12-31T17:21:13.566Z,3.10
2018-12-31T17:23:42.113Z,3.20
2018-12-31T17:26:10.818Z,3.10
2018-12-31T17:28:39.445Z,3.10
2018-12-31T17:31:08.132Z,3.10
2018-12-31T17:33:36.732Z,3.10
2018-12-31T17:36:05.410Z,3.10
2018-12-31T17:38:34.035Z,3.10
2018-12-31T17:41:02.745Z,3.10
2018-12-31T17:43:31.292Z,3.10
2018-12-31T17:45:59.834Z,3.00
2018-12-31T17:48:28.477Z,3.00
2018-12-31T17:50:57.221Z,3.00
2018-12-31T17:53:26.277Z,3.00
2018-12-31T17:55:54.974Z,3.10
2018-12-31T17:58:23.585Z,3.10
2018-12-31T18:00:52.189Z,3.10
2018-12-31T18:03:20.766Z,3.10
2018-12-31T18:05:49.762Z,3.00
2018-12-31T18:08:18.354Z,3.00
2018-12-31T18:10:47.167Z,3.10
2018-12-31T18:13:15.718Z,3.00
2018-12-31T18:15:44.395Z,3.10
2018-12-31T18:18:14.678Z,3.00
2018-12-31T18:20:43.302Z,3.00
2018-12-31T18:23:11.914Z,3.00
2018-12-31T18:25:41.317Z,3.00
2018-12-31T18:28:09.998Z,3.00
2018-12-31T18:30:39.042Z,2.90
2018-12-31T18:33:07.640Z,2.90
2018-12-31T18:35:36.391Z,2.90
2018-12-31T18:38:05.067Z,3.00
2018-12-31T18:40:33.693Z,3.00
2018-12-31T18:43:02.809Z,3.00
2018-12-31T18:45:31.497Z,3.00
2018-12-31T18:48:00.066Z,3.00
2018-12-31T18:50:28.626Z,3.00
2018-12-31T18:52:57.249Z,3.00
2018-12-31T18:55:25.880Z,3.00
2018-12-31T18:57:54.414Z,3.00
2018-12-31T19:00:24.657Z,3.00
2018-12-31T19:02:53.175Z,3.00
2018-12-31T19:05:21.694Z,3.00
2018-12-31T19:07:50.321Z,3.00
2018-12-31T19:10:19.050Z,3.00
2018-12-31T19:12:47.735Z,3.00
2018-12-31T19:15:16.406Z,3.00
2018-12-31T19:17:45.049Z,3.00
2018-12-31T19:20:13.730Z,3.00
2018-12-31T19:22:42.816Z,3.00
2018-12-31T19:25:11.449Z,3.00
2018-12-31T19:27:40.177Z,3.00
2018-12-31T19:30:08.959Z,3.00
2018-12-31T19:32:37.582Z,2.90
2018-12-31T19:35:06.204Z,2.90
2018-12-31T19:37:34.785Z,2.90
2018-12-31T19:40:03.747Z,2.90
2018-12-31T19:42:33.671Z,2.90
2018-12-31T19:45:02.433Z,2.90
2018-12-31T19:47:31.046Z,3.00
2018-12-31T19:49:59.573Z,2.90
2018-12-31T19:52:28.185Z,2.90
2018-12-31T19:54:58.388Z,2.90
2018-12-31T19:57:26.923Z,2.90
2018-12-31T19:59:55.453Z,2.80
2018-12-31T20:02:24.590Z,2.80
2018-12-31T20:04:53.209Z,2.80
2018-12-31T20:07:21.739Z,2.80
2018-12-31T20:09:50.372Z,2.70
2018-12-31T20:12:18.893Z,2.80
2018-12-31T20:14:47.892Z,2.80
2018-12-31T20:17:16.370Z,2.70
2018-12-31T20:19:44.907Z,2.70
2018-12-31T20:22:13.439Z,2.70
2018-12-31T20:24:41.997Z,2.70
2018-12-31T20:27:10.520Z,2.80
2018-12-31T20:29:39.053Z,2.80
2018-12-31T20:32:07.593Z,2.70
2018-12-31T20:34:36.144Z,2.80
2018-12-31T20:37:04.730Z,2.80
2018-12-31T20:39:33.389Z,2.80
2018-12-31T20:42:01.836Z,2.80
2018-12-31T20:44:30.365Z,2.70
2018-12-31T20:46:58.934Z,2.70
2018-12-31T20:49:28.346Z,2.80
2018-12-31T20:51:57.190Z,2.80
2018-12-31T20:54:25.672Z,2.80
2018-12-31T20:56:54.629Z,2.80
2018-12-31T20:59:23.085Z,2.80
2018-12-31T21:01:51.565Z,2.80
2018-12-31T21:04:20.025Z,2.80
2018-12-31T21:06:48.569Z,2.80
2018-12-31T21:09:17.117Z,2.80
2018-12-31T21:11:45.777Z,2.90
2018-12-31T21:14:14.325Z,2.90
2018-12-31T21:16:42.885Z,2.90
2018-12-31T21:19:11.410Z,2.90
2018-12-31T21:21:39.935Z,2.90
2018-12-31T21:24:08.493Z,3.00
2018-12-31T21:26:37.017Z,2.90
2018-12-31T21:29:05.474Z,2.90
2018-12-31T21:31:34.233Z,3.00
2018-12-31T21:34:02.765Z,2.90
2018-12-31T21:36:31.696Z,2.90
2018-12-31T21:39:00.247Z,2.90
2018-12-31T21:41:28.902Z,2.90
2018-12-31T21:43:57.435Z,2.80
2018-12-31T21:46:25.985Z,2.80
2018-12-31T21:48:54.514Z,2.80
2018-12-31T21:51:23.113Z,2.80
2018-12-31T21:53:51.669Z,2.80
2018-12-31T21:56:20.121Z,2.80
2018-12-31T21:58:48.653Z,2.80
2018-12-31T22:01:17.163Z,2.90
2018-12-31T22:03:46.378Z,2.90
2018-12-31T22:06:14.993Z,2.90
2018-12-31T22:08:43.633Z,2.90
2018-12-31T22:11:12.265Z,2.90
2018-12-31T22:13:40.861Z,2.90
2018-12-31T22:16:09.433Z,3.00
2018-12-31T22:18:37.950Z,3.00
2018-12-31T22:21:06.545Z,3.10
2018-12-31T22:23:35.032Z,3.10
2018-12-31T22:26:03.745Z,3.10
2018-12-31T22:28:32.197Z,3.10
2018-12-31T22:31:00.861Z,3.10
2018-12-31T22:33:29.390Z,3.10
2018-12-31T22:35:57.908Z,3.10
2018-12-31T22:38:26.525Z,3.10
2018-12-31T22:40:54.990Z,3.00
2018-12-31T22:43:24.090Z,3.10
2018-12-31T22:45:52.637Z,3.10
2018-12-31T22:48:21.165Z,3.10
2018-12-31T22:50:49.688Z,3.10
2018-12-31T22:53:18.161Z,3.10
2018-12-31T22:55:46.689Z,3.10
2018-12-31T22:58:15.220Z,3.10
2018-12-31T23:00:44.214Z,3.20
2018-12-31T23:05:45.062Z,3.20
2018-12-31T23:08:13.998Z,3.20
2018-12-31T23:10:42.531Z,3.30
2018-12-31T23:13:11.188Z,3.30
2018-12-31T23:15:39.713Z,3.30
2018-12-31T23:18:08.190Z,3.40
2018-12-31T23:20:36.858Z,3.30
2018-12-31T23:23:05.429Z,3.40
2018-12-31T23:25:34.101Z,3.40
2018-12-31T23:28:02.610Z,3.40
2018-12-31T23:30:31.280Z,3.50
2018-12-31T23:32:59.809Z,3.50
2018-12-31T23:35:30.240Z,3.50
2018-12-31T23:37:59.129Z,3.50
2018-12-31T23:40:27.729Z,3.50
2018-12-31T23:42:56.233Z,3.60
2018-12-31T23:45:24.765Z,3.60
2018-12-31T23:47:53.896Z,3.50
2018-12-31T23:50:22.442Z,3.60
2018-12-31T23:52:51.049Z,3.60
2018-12-31T23:55:19.570Z,3.70
2018-12-31T23:57:48.113Z,3.70
